sensor_id;sensor_type;location;lat;lon;timestamp;temperature;humidity
10010;DHT22;5044;48.652;9.250;2023-04-25T00:01:16;7.20;96.90
10010;DHT22;5044;48.652;9.250;2023-04-25T00:03:44;6.90;95.40
10010;DHT22;5044;48.652;9.250;2023-04-25T00:06:12;7.10;96.60
10010;DHT22;5044;48.652;9.250;2023-04-25T00:08:39;7.20;93.50
10010;DHT22;5044;48.652;9.250;2023-04-25T00:11:06;7.20;99.90
10010;DHT22;5044;48.652;9.250;2023-04-25T00:13:33;7.10;99.90
10010;DHT22;5044;48.652;9.250;2023-04-25T00:16:00;7.10;95.10
10010;DHT22;5044;48.652;9.250;2023-04-25T00:18:28;7.30;96.10
10010;DHT22;5044;48.652;9.250;2023-04-25T00:20:55;7.10;97.10
10010;DHT22;5044;48.652;9.250;2023-04-25T00:23:23;7.00;94.40
10010;DHT22;5044;48.652;9.250;2023-04-25T00:25:50;6.80;93.50
10010;DHT22;5044;48.652;9.250;2023-04-25T00:28:17;7.10;94.70
10010;DHT22;5044;48.652;9.250;2023-04-25T00:30:44;7.00;93.90
10010;DHT22;5044;48.652;9.250;2023-04-25T00:33:11;7.00;94.80
10010;DHT22;5044;48.652;9.250;2023-04-25T00:35:38;6.80;92.40
10010;DHT22;5044;48.652;9.250;2023-04-25T00:38:05;7.00;93.90
10010;DHT22;5044;48.652;9.250;2023-04-25T00:40:33;7.00;94.80
10010;DHT22;5044;48.652;9.250;2023-04-25T00:43:00;7.60;99.90
10010;DHT22;5044;48.652;9.250;2023-04-25T00:45:28;7.20;94.20
10010;DHT22;5044;48.652;9.250;2023-04-25T00:47:56;7.00;95.00
10010;DHT22;5044;48.652;9.250;2023-04-25T00:50:23;7.00;95.00
10010;DHT22;5044;48.652;9.250;2023-04-25T00:52:50;7.00;95.50
10010;DHT22;5044;48.652;9.250;2023-04-25T00:55:18;7.00;93.60
10010;DHT22;5044;48.652;9.250;2023-04-25T00:57:46;7.00;92.60
10010;DHT22;5044;48.652;9.250;2023-04-25T01:00:13;7.00;93.90
10010;DHT22;5044;48.652;9.250;2023-04-25T01:02:41;7.00;95.00
10010;DHT22;5044;48.652;9.250;2023-04-25T01:05:09;7.00;93.70
10010;DHT22;5044;48.652;9.250;2023-04-25T01:07:36;7.00;98.00
10010;DHT22;5044;48.652;9.250;2023-04-25T01:10:03;6.80;96.90
10010;DHT22;5044;48.652;9.250;2023-04-25T01:12:31;7.00;99.90
10010;DHT22;5044;48.652;9.250;2023-04-25T01:15:00;7.00;99.90
10010;DHT22;5044;48.652;9.250;2023-04-25T01:17:27;7.00;99.90
10010;DHT22;5044;48.652;9.250;2023-04-25T01:19:54;7.30;99.90
10010;DHT22;5044;48.652;9.250;2023-04-25T01:22:23;7.00;96.90
10010;DHT22;5044;48.652;9.250;2023-04-25T01:24:50;7.00;95.50
10010;DHT22;5044;48.652;9.250;2023-04-25T01:27:17;7.20;99.90
10010;DHT22;5044;48.652;9.250;2023-04-25T01:29:46;7.40;95.20
10010;DHT22;5044;48.652;9.250;2023-04-25T01:32:14;7.20;98.90
10010;DHT22;5044;48.652;9.250;2023-04-25T01:34:41;6.80;94.50
10010;DHT22;5044;48.652;9.250;2023-04-25T01:37:08;7.30;95.40
10010;DHT22;5044;48.652;9.250;2023-04-25T01:39:36;7.00;99.90
10010;DHT22;5044;48.652;9.250;2023-04-25T01:42:03;7.00;99.90
10010;DHT22;5044;48.652;9.250;2023-04-25T01:44:31;7.00;99.90
10010;DHT22;5044;48.652;9.250;2023-04-25T01:46:58;7.00;99.90
10010;DHT22;5044;48.652;9.250;2023-04-25T01:49:25;6.90;99.90
10010;DHT22;5044;48.652;9.250;2023-04-25T01:51:52;6.80;99.90
10010;DHT22;5044;48.652;9.250;2023-04-25T01:54:20;7.00;99.90
10010;DHT22;5044;48.652;9.250;2023-04-25T01:56:51;7.10;99.90
10010;DHT22;5044;48.652;9.250;2023-04-25T01:59:19;7.20;99.90
10010;DHT22;5044;48.652;9.250;2023-04-25T02:01:47;7.00;99.90
10010;DHT22;5044;48.652;9.250;2023-04-25T02:04:14;7.00;99.90
10010;DHT22;5044;48.652;9.250;2023-04-25T02:06:42;7.20;99.90
10010;DHT22;5044;48.652;9.250;2023-04-25T02:09:08;7.00;99.90
10010;DHT22;5044;48.652;9.250;2023-04-25T02:11:36;7.00;99.90
10010;DHT22;5044;48.652;9.250;2023-04-25T02:14:04;7.00;99.90
10010;DHT22;5044;48.652;9.250;2023-04-25T02:16:31;7.00;99.90
10010;DHT22;5044;48.652;9.250;2023-04-25T02:18:59;7.00;99.90
10010;DHT22;5044;48.652;9.250;2023-04-25T02:21:26;7.00;99.90
10010;DHT22;5044;48.652;9.250;2023-04-25T02:23:53;6.90;99.90
10010;DHT22;5044;48.652;9.250;2023-04-25T02:26:20;6.90;99.90
10010;DHT22;5044;48.652;9.250;2023-04-25T02:28:49;6.90;99.90
10010;DHT22;5044;48.652;9.250;2023-04-25T02:31:18;6.80;99.90
10010;DHT22;5044;48.652;9.250;2023-04-25T02:33:47;6.80;99.90
10010;DHT22;5044;48.652;9.250;2023-04-25T02:36:14;6.80;99.90
10010;DHT22;5044;48.652;9.250;2023-04-25T02:38:41;6.80;99.90
10010;DHT22;5044;48.652;9.250;2023-04-25T02:41:08;6.80;99.90
10010;DHT22;5044;48.652;9.250;2023-04-25T02:43:35;7.10;99.90
10010;DHT22;5044;48.652;9.250;2023-04-25T02:46:02;7.00;99.90
10010;DHT22;5044;48.652;9.250;2023-04-25T02:48:31;6.80;99.90
10010;DHT22;5044;48.652;9.250;2023-04-25T02:50:59;6.60;99.90
10010;DHT22;5044;48.652;9.250;2023-04-25T02:53:26;6.70;99.90
10010;DHT22;5044;48.652;9.250;2023-04-25T02:55:53;6.80;99.90
10010;DHT22;5044;48.652;9.250;2023-04-25T02:58:23;6.70;99.90
10010;DHT22;5044;48.652;9.250;2023-04-25T03:03:26;6.70;99.90
10010;DHT22;5044;48.652;9.250;2023-04-25T03:05:54;6.70;99.90
10010;DHT22;5044;48.652;9.250;2023-04-25T03:08:21;6.60;99.90
10010;DHT22;5044;48.652;9.250;2023-04-25T03:10:48;6.60;99.90
10010;DHT22;5044;48.652;9.250;2023-04-25T03:19:22;6.50;99.90
10010;DHT22;5044;48.652;9.250;2023-04-25T03:21:50;6.50;99.90
10010;DHT22;5044;48.652;9.250;2023-04-25T03:24:17;6.40;99.90
10010;DHT22;5044;48.652;9.250;2023-04-25T03:26:44;6.50;99.90
10010;DHT22;5044;48.652;9.250;2023-04-25T03:29:11;6.30;98.00
10010;DHT22;5044;48.652;9.250;2023-04-25T03:31:38;6.40;99.90
10010;DHT22;5044;48.652;9.250;2023-04-25T03:34:06;6.50;99.90
10010;DHT22;5044;48.652;9.250;2023-04-25T03:36:33;6.40;99.90
10010;DHT22;5044;48.652;9.250;2023-04-25T03:39:01;6.40;98.80
10010;DHT22;5044;48.652;9.250;2023-04-25T03:54:59;6.40;98.80
10010;DHT22;5044;48.652;9.250;2023-04-25T03:57:26;6.50;99.90
10010;DHT22;5044;48.652;9.250;2023-04-25T03:59:53;6.40;99.90
10010;DHT22;5044;48.652;9.250;2023-04-25T04:02:20;6.40;99.50
10010;DHT22;5044;48.652;9.250;2023-04-25T04:04:47;6.60;99.90
10010;DHT22;5044;48.652;9.250;2023-04-25T04:24:35;6.70;99.90
10010;DHT22;5044;48.652;9.250;2023-04-25T04:27:03;6.40;99.90
10010;DHT22;5044;48.652;9.250;2023-04-25T04:37:11;6.40;99.90
10010;DHT22;5044;48.652;9.250;2023-04-25T06:29:26;8.10;99.90
10010;DHT22;5044;48.652;9.250;2023-04-25T06:45:16;8.30;99.90
10010;DHT22;5044;48.652;9.250;2023-04-25T07:17:20;8.30;99.90
10010;DHT22;5044;48.652;9.250;2023-04-25T07:46:08;7.80;99.90
10010;DHT22;5044;48.652;9.250;2023-04-25T07:54:53;7.60;99.90
10010;DHT22;5044;48.652;9.250;2023-04-25T07:57:20;7.60;99.90
10010;DHT22;5044;48.652;9.250;2023-04-25T07:59:47;7.70;99.90
10010;DHT22;5044;48.652;9.250;2023-04-25T10:24:44;7.20;99.90
10010;DHT22;5044;48.652;9.250;2023-04-25T10:27:16;6.50;99.90
10010;DHT22;5044;48.652;9.250;2023-04-25T10:30:00;6.90;99.90
10010;DHT22;5044;48.652;9.250;2023-04-25T10:32:32;7.10;99.90
10010;DHT22;5044;48.652;9.250;2023-04-25T10:35:13;7.00;99.90
10010;DHT22;5044;48.652;9.250;2023-04-25T10:38:05;7.20;99.90
10010;DHT22;5044;48.652;9.250;2023-04-25T10:40:36;7.20;99.90
10010;DHT22;5044;48.652;9.250;2023-04-25T10:43:37;7.00;99.90
10010;DHT22;5044;48.652;9.250;2023-04-25T10:46:19;6.80;99.90
10010;DHT22;5044;48.652;9.250;2023-04-25T10:48:48;6.60;99.90
10010;DHT22;5044;48.652;9.250;2023-04-25T10:51:21;6.90;99.90
10010;DHT22;5044;48.652;9.250;2023-04-25T10:53:57;7.10;99.90
10010;DHT22;5044;48.652;9.250;2023-04-25T10:56:29;7.20;99.90
10010;DHT22;5044;48.652;9.250;2023-04-25T10:59:07;7.30;99.90
10010;DHT22;5044;48.652;9.250;2023-04-25T11:01:40;7.30;99.90
10010;DHT22;5044;48.652;9.250;2023-04-25T11:04:22;7.20;99.90
10010;DHT22;5044;48.652;9.250;2023-04-25T11:07:10;7.10;99.90
10010;DHT22;5044;48.652;9.250;2023-04-25T11:09:45;7.10;99.90
10010;DHT22;5044;48.652;9.250;2023-04-25T11:12:17;7.30;99.90
10010;DHT22;5044;48.652;9.250;2023-04-25T11:14:44;7.30;99.90
10010;DHT22;5044;48.652;9.250;2023-04-25T11:17:11;7.00;99.90
10010;DHT22;5044;48.652;9.250;2023-04-25T11:19:41;7.40;99.90
10010;DHT22;5044;48.652;9.250;2023-04-25T11:22:10;7.10;99.90
10010;DHT22;5044;48.652;9.250;2023-04-25T11:24:37;7.30;99.90
10010;DHT22;5044;48.652;9.250;2023-04-25T11:27:05;7.30;99.90
10010;DHT22;5044;48.652;9.250;2023-04-25T11:29:36;7.30;99.90
10010;DHT22;5044;48.652;9.250;2023-04-25T11:32:03;7.50;99.90
10010;DHT22;5044;48.652;9.250;2023-04-25T11:34:32;7.60;99.90
10010;DHT22;5044;48.652;9.250;2023-04-25T11:37:04;7.40;99.90
10010;DHT22;5044;48.652;9.250;2023-04-25T11:42:22;7.70;99.90
10010;DHT22;5044;48.652;9.250;2023-04-25T11:44:56;7.50;99.90
10010;DHT22;5044;48.652;9.250;2023-04-25T11:47:28;7.20;99.90
10010;DHT22;5044;48.652;9.250;2023-04-25T11:49:58;7.10;99.90
10010;DHT22;5044;48.652;9.250;2023-04-25T11:52:36;7.00;99.90
10010;DHT22;5044;48.652;9.250;2023-04-25T11:55:05;7.00;99.90
10010;DHT22;5044;48.652;9.250;2023-04-25T11:57:32;7.00;99.90
10010;DHT22;5044;48.652;9.250;2023-04-25T12:00:09;7.20;99.90
10010;DHT22;5044;48.652;9.250;2023-04-25T12:02:41;7.40;99.90
10010;DHT22;5044;48.652;9.250;2023-04-25T12:05:12;7.90;99.90
10010;DHT22;5044;48.652;9.250;2023-04-25T12:07:39;7.70;99.90
10010;DHT22;5044;48.652;9.250;2023-04-25T12:10:11;7.70;99.90
10010;DHT22;5044;48.652;9.250;2023-04-25T12:12:50;7.80;99.90
10010;DHT22;5044;48.652;9.250;2023-04-25T12:15:25;7.80;99.90
10010;DHT22;5044;48.652;9.250;2023-04-25T12:17:55;7.90;99.90
10010;DHT22;5044;48.652;9.250;2023-04-25T12:20:25;7.90;99.90
10010;DHT22;5044;48.652;9.250;2023-04-25T12:22:59;8.10;99.90
10010;DHT22;5044;48.652;9.250;2023-04-25T12:25:36;8.40;99.90
10010;DHT22;5044;48.652;9.250;2023-04-25T12:28:12;8.20;99.90
10010;DHT22;5044;48.652;9.250;2023-04-25T12:30:59;8.10;99.90
10010;DHT22;5044;48.652;9.250;2023-04-25T12:33:30;7.90;99.90
10010;DHT22;5044;48.652;9.250;2023-04-25T12:36:02;7.80;99.90
10010;DHT22;5044;48.652;9.250;2023-04-25T12:38:37;7.80;99.90
10010;DHT22;5044;48.652;9.250;2023-04-25T12:41:08;7.70;99.90
10010;DHT22;5044;48.652;9.250;2023-04-25T12:43:39;7.80;99.90
10010;DHT22;5044;48.652;9.250;2023-04-25T12:46:12;7.80;99.90
10010;DHT22;5044;48.652;9.250;2023-04-25T12:48:40;7.70;99.90
10010;DHT22;5044;48.652;9.250;2023-04-25T12:51:09;7.60;99.90
10010;DHT22;5044;48.652;9.250;2023-04-25T12:53:46;7.80;99.90
10010;DHT22;5044;48.652;9.250;2023-04-25T12:56:16;7.90;99.90
10010;DHT22;5044;48.652;9.250;2023-04-25T13:01:24;8.30;99.90
10010;DHT22;5044;48.652;9.250;2023-04-25T13:03:55;8.50;99.90
10010;DHT22;5044;48.652;9.250;2023-04-25T13:06:24;8.40;99.90
10010;DHT22;5044;48.652;9.250;2023-04-25T13:09:00;8.40;99.90
10010;DHT22;5044;48.652;9.250;2023-04-25T13:11:29;8.70;99.90
10010;DHT22;5044;48.652;9.250;2023-04-25T13:13:55;8.80;99.90
10010;DHT22;5044;48.652;9.250;2023-04-25T13:16:24;8.90;99.90
10010;DHT22;5044;48.652;9.250;2023-04-25T13:18:51;9.50;99.90
10010;DHT22;5044;48.652;9.250;2023-04-25T13:21:18;9.80;99.90
10010;DHT22;5044;48.652;9.250;2023-04-25T13:23:47;9.80;99.90
10010;DHT22;5044;48.652;9.250;2023-04-25T13:26:14;10.10;99.90
10010;DHT22;5044;48.652;9.250;2023-04-25T13:28:41;10.00;99.90
10010;DHT22;5044;48.652;9.250;2023-04-25T13:31:10;9.80;99.90
10010;DHT22;5044;48.652;9.250;2023-04-25T13:33:42;9.80;99.90
10010;DHT22;5044;48.652;9.250;2023-04-25T13:36:12;10.00;99.90
10010;DHT22;5044;48.652;9.250;2023-04-25T13:38:40;10.10;99.90
10010;DHT22;5044;48.652;9.250;2023-04-25T13:41:52;10.30;99.90
10010;DHT22;5044;48.652;9.250;2023-04-25T13:48:05;10.90;99.90
10010;DHT22;5044;48.652;9.250;2023-04-25T13:51:02;10.80;99.90
10010;DHT22;5044;48.652;9.250;2023-04-25T13:53:50;10.80;99.90
10010;DHT22;5044;48.652;9.250;2023-04-25T13:56:55;11.10;99.90
10010;DHT22;5044;48.652;9.250;2023-04-25T14:00:01;11.60;99.90
10010;DHT22;5044;48.652;9.250;2023-04-25T14:02:40;11.80;99.20
10010;DHT22;5044;48.652;9.250;2023-04-25T14:05:22;11.90;92.80
10010;DHT22;5044;48.652;9.250;2023-04-25T14:09:09;11.70;97.50
10010;DHT22;5044;48.652;9.250;2023-04-25T14:11:33;11.40;97.10
10010;DHT22;5044;48.652;9.250;2023-04-25T14:14:41;11.30;98.30
10010;DHT22;5044;48.652;9.250;2023-04-25T14:17:36;11.60;97.40
10010;DHT22;5044;48.652;9.250;2023-04-25T14:20:38;11.60;99.40
10010;DHT22;5044;48.652;9.250;2023-04-25T14:23:57;11.50;97.40
10010;DHT22;5044;48.652;9.250;2023-04-25T14:26:55;12.00;98.90
10010;DHT22;5044;48.652;9.250;2023-04-25T14:29:56;11.60;94.10
10010;DHT22;5044;48.652;9.250;2023-04-25T14:36:02;11.40;99.90
10010;DHT22;5044;48.652;9.250;2023-04-25T14:45:22;11.20;99.40
10010;DHT22;5044;48.652;9.250;2023-04-25T14:51:03;11.10;98.00
10010;DHT22;5044;48.652;9.250;2023-04-25T14:53:53;11.00;97.80
10010;DHT22;5044;48.652;9.250;2023-04-25T14:56:46;10.80;98.20
10010;DHT22;5044;48.652;9.250;2023-04-25T15:02:28;11.20;97.10
10010;DHT22;5044;48.652;9.250;2023-04-25T15:05:05;11.50;97.30
10010;DHT22;5044;48.652;9.250;2023-04-25T15:07:32;11.90;96.90
10010;DHT22;5044;48.652;9.250;2023-04-25T15:10:08;12.00;94.10
10010;DHT22;5044;48.652;9.250;2023-04-25T15:12:41;11.80;94.30
10010;DHT22;5044;48.652;9.250;2023-04-25T15:15:11;11.90;94.40
10010;DHT22;5044;48.652;9.250;2023-04-25T15:17:41;12.00;95.00
10010;DHT22;5044;48.652;9.250;2023-04-25T15:20:10;12.20;95.30
10010;DHT22;5044;48.652;9.250;2023-04-25T15:22:39;12.20;93.40
10010;DHT22;5044;48.652;9.250;2023-04-25T15:25:07;12.60;94.90
10010;DHT22;5044;48.652;9.250;2023-04-25T15:27:34;12.90;91.00
10010;DHT22;5044;48.652;9.250;2023-04-25T15:30:04;13.00;90.00
10010;DHT22;5044;48.652;9.250;2023-04-25T15:32:31;13.10;90.90
10010;DHT22;5044;48.652;9.250;2023-04-25T15:35:01;13.60;81.90
10010;DHT22;5044;48.652;9.250;2023-04-25T15:37:29;13.80;92.50
10010;DHT22;5044;48.652;9.250;2023-04-25T15:40:01;14.00;81.50
10010;DHT22;5044;48.652;9.250;2023-04-25T15:42:30;12.60;79.80
10010;DHT22;5044;48.652;9.250;2023-04-25T15:44:58;12.40;92.80
10010;DHT22;5044;48.652;9.250;2023-04-25T15:47:25;12.50;85.40
10010;DHT22;5044;48.652;9.250;2023-04-25T15:49:53;12.30;88.50
10010;DHT22;5044;48.652;9.250;2023-04-25T15:52:22;12.30;90.60
10010;DHT22;5044;48.652;9.250;2023-04-25T15:54:52;12.20;87.70
10010;DHT22;5044;48.652;9.250;2023-04-25T15:57:24;12.00;88.20
10010;DHT22;5044;48.652;9.250;2023-04-25T15:59:51;12.00;92.00
10010;DHT22;5044;48.652;9.250;2023-04-25T16:02:23;12.00;90.40
10010;DHT22;5044;48.652;9.250;2023-04-25T16:04:55;11.80;92.20
10010;DHT22;5044;48.652;9.250;2023-04-25T16:07:27;11.70;91.10
10010;DHT22;5044;48.652;9.250;2023-04-25T16:09:58;11.80;86.90
10010;DHT22;5044;48.652;9.250;2023-04-25T16:12:25;11.70;91.20
10010;DHT22;5044;48.652;9.250;2023-04-25T16:14:53;12.40;91.10
10010;DHT22;5044;48.652;9.250;2023-04-25T16:17:22;11.80;93.00
10010;DHT22;5044;48.652;9.250;2023-04-25T16:19:54;11.60;90.20
10010;DHT22;5044;48.652;9.250;2023-04-25T16:22:27;11.50;90.70
10010;DHT22;5044;48.652;9.250;2023-04-25T16:24:59;11.50;90.20
10010;DHT22;5044;48.652;9.250;2023-04-25T16:27:30;11.50;88.70
10010;DHT22;5044;48.652;9.250;2023-04-25T16:30:02;11.20;89.60
10010;DHT22;5044;48.652;9.250;2023-04-25T16:32:32;11.20;90.90
10010;DHT22;5044;48.652;9.250;2023-04-25T16:34:59;11.40;90.60
10010;DHT22;5044;48.652;9.250;2023-04-25T16:37:30;11.50;91.20
10010;DHT22;5044;48.652;9.250;2023-04-25T16:40:02;11.60;90.80
10010;DHT22;5044;48.652;9.250;2023-04-25T16:42:35;11.60;91.90
10010;DHT22;5044;48.652;9.250;2023-04-25T16:45:09;11.50;90.60
10010;DHT22;5044;48.652;9.250;2023-04-25T16:47:51;11.50;91.40
10010;DHT22;5044;48.652;9.250;2023-04-25T16:50:35;11.20;92.20
10010;DHT22;5044;48.652;9.250;2023-04-25T16:53:31;11.40;90.10
10010;DHT22;5044;48.652;9.250;2023-04-25T16:56:28;10.90;90.80
10010;DHT22;5044;48.652;9.250;2023-04-25T16:59:09;10.90;91.10
10010;DHT22;5044;48.652;9.250;2023-04-25T17:01:54;10.90;92.20
10010;DHT22;5044;48.652;9.250;2023-04-25T17:04:47;10.60;94.90
10010;DHT22;5044;48.652;9.250;2023-04-25T17:07:24;10.40;94.80
10010;DHT22;5044;48.652;9.250;2023-04-25T17:10:04;10.30;95.10
10010;DHT22;5044;48.652;9.250;2023-04-25T17:12:34;9.90;96.00
10010;DHT22;5044;48.652;9.250;2023-04-25T17:15:08;9.80;97.70
10010;DHT22;5044;48.652;9.250;2023-04-25T17:17:43;9.60;99.10
10010;DHT22;5044;48.652;9.250;2023-04-25T17:20:24;9.60;99.90
10010;DHT22;5044;48.652;9.250;2023-04-25T17:23:04;9.60;99.90
10010;DHT22;5044;48.652;9.250;2023-04-25T17:25:41;9.70;99.90
10010;DHT22;5044;48.652;9.250;2023-04-25T17:28:10;9.70;99.90
10010;DHT22;5044;48.652;9.250;2023-04-25T17:30:50;9.40;99.90
10010;DHT22;5044;48.652;9.250;2023-04-25T17:33:26;9.50;99.90
10010;DHT22;5044;48.652;9.250;2023-04-25T17:36:04;9.40;99.90
10010;DHT22;5044;48.652;9.250;2023-04-25T17:38:47;9.30;99.90
10010;DHT22;5044;48.652;9.250;2023-04-25T17:41:44;9.20;99.90
10010;DHT22;5044;48.652;9.250;2023-04-25T17:44:27;9.30;99.90
10010;DHT22;5044;48.652;9.250;2023-04-25T17:47:06;9.10;99.90
10010;DHT22;5044;48.652;9.250;2023-04-25T17:49:58;9.10;99.90
10010;DHT22;5044;48.652;9.250;2023-04-25T17:52:37;9.00;99.90
10010;DHT22;5044;48.652;9.250;2023-04-25T17:55:18;9.00;99.90
10010;DHT22;5044;48.652;9.250;2023-04-25T17:57:51;8.90;99.90
10010;DHT22;5044;48.652;9.250;2023-04-25T18:00:36;8.90;99.90
10010;DHT22;5044;48.652;9.250;2023-04-25T18:03:16;8.90;99.90
10010;DHT22;5044;48.652;9.250;2023-04-25T18:05:59;8.80;99.90
10010;DHT22;5044;48.652;9.250;2023-04-25T18:08:47;8.20;99.90
10010;DHT22;5044;48.652;9.250;2023-04-25T18:11:24;8.70;99.90
10010;DHT22;5044;48.652;9.250;2023-04-25T18:14:06;8.60;99.90
10010;DHT22;5044;48.652;9.250;2023-04-25T18:16:48;8.40;99.90
10010;DHT22;5044;48.652;9.250;2023-04-25T18:19:31;8.30;99.90
10010;DHT22;5044;48.652;9.250;2023-04-25T18:22:08;8.20;99.90
10010;DHT22;5044;48.652;9.250;2023-04-25T18:24:40;8.10;99.90
10010;DHT22;5044;48.652;9.250;2023-04-25T18:27:12;7.90;99.90
10010;DHT22;5044;48.652;9.250;2023-04-25T18:29:46;7.80;99.90
10010;DHT22;5044;48.652;9.250;2023-04-25T18:32:20;7.50;99.90
10010;DHT22;5044;48.652;9.250;2023-04-25T18:34:55;7.40;99.90
10010;DHT22;5044;48.652;9.250;2023-04-25T18:37:25;7.30;99.90
10010;DHT22;5044;48.652;9.250;2023-04-25T18:40:12;7.30;99.90
10010;DHT22;5044;48.652;9.250;2023-04-25T18:42:53;7.10;99.90
10010;DHT22;5044;48.652;9.250;2023-04-25T18:45:26;7.00;99.90
10010;DHT22;5044;48.652;9.250;2023-04-25T18:47:57;7.00;99.90
10010;DHT22;5044;48.652;9.250;2023-04-25T18:50:31;7.00;99.90
10010;DHT22;5044;48.652;9.250;2023-04-25T18:53:51;7.00;99.90
10010;DHT22;5044;48.652;9.250;2023-04-25T18:56:42;6.80;99.90
10010;DHT22;5044;48.652;9.250;2023-04-25T18:59:31;7.20;99.90
10010;DHT22;5044;48.652;9.250;2023-04-25T19:02:13;7.30;99.90
10010;DHT22;5044;48.652;9.250;2023-04-25T19:04:47;7.10;99.90
10010;DHT22;5044;48.652;9.250;2023-04-25T19:07:16;7.10;99.90
10010;DHT22;5044;48.652;9.250;2023-04-25T19:09:49;6.90;99.90
10010;DHT22;5044;48.652;9.250;2023-04-25T19:12:16;7.10;99.90
10010;DHT22;5044;48.652;9.250;2023-04-25T19:14:43;6.90;99.90
10010;DHT22;5044;48.652;9.250;2023-04-25T19:17:11;6.90;99.90
10010;DHT22;5044;48.652;9.250;2023-04-25T19:19:38;6.90;99.90
10010;DHT22;5044;48.652;9.250;2023-04-25T19:22:06;6.80;99.90
10010;DHT22;5044;48.652;9.250;2023-04-25T19:24:33;6.90;99.90
10010;DHT22;5044;48.652;9.250;2023-04-25T19:26:59;7.00;99.90
10010;DHT22;5044;48.652;9.250;2023-04-25T19:29:27;7.00;99.90
10010;DHT22;5044;48.652;9.250;2023-04-25T19:31:54;6.90;99.90
10010;DHT22;5044;48.652;9.250;2023-04-25T19:34:25;6.90;99.90
10010;DHT22;5044;48.652;9.250;2023-04-25T19:36:52;6.90;99.90
10010;DHT22;5044;48.652;9.250;2023-04-25T19:39:21;6.80;99.90
10010;DHT22;5044;48.652;9.250;2023-04-25T19:41:48;6.80;99.90
10010;DHT22;5044;48.652;9.250;2023-04-25T19:44:15;7.20;99.90
10010;DHT22;5044;48.652;9.250;2023-04-25T19:46:41;6.80;99.90
10010;DHT22;5044;48.652;9.250;2023-04-25T19:49:11;6.90;99.90
10010;DHT22;5044;48.652;9.250;2023-04-25T19:51:40;6.90;99.90
10010;DHT22;5044;48.652;9.250;2023-04-25T19:54:08;6.90;99.90
10010;DHT22;5044;48.652;9.250;2023-04-25T19:56:35;6.90;99.90
10010;DHT22;5044;48.652;9.250;2023-04-25T19:59:02;7.00;99.90
10010;DHT22;5044;48.652;9.250;2023-04-25T20:01:29;7.10;99.90
10010;DHT22;5044;48.652;9.250;2023-04-25T20:03:56;6.90;99.90
10010;DHT22;5044;48.652;9.250;2023-04-25T20:06:23;6.90;99.90
10010;DHT22;5044;48.652;9.250;2023-04-25T20:08:53;6.80;99.90
10010;DHT22;5044;48.652;9.250;2023-04-25T20:11:20;6.90;99.90
10010;DHT22;5044;48.652;9.250;2023-04-25T20:13:47;6.90;99.90
10010;DHT22;5044;48.652;9.250;2023-04-25T20:16:14;6.90;99.90
10010;DHT22;5044;48.652;9.250;2023-04-25T20:18:44;6.80;99.90
10010;DHT22;5044;48.652;9.250;2023-04-25T20:21:11;6.80;99.90
10010;DHT22;5044;48.652;9.250;2023-04-25T20:23:38;6.80;99.90
10010;DHT22;5044;48.652;9.250;2023-04-25T20:26:07;6.90;99.90
10010;DHT22;5044;48.652;9.250;2023-04-25T20:28:37;6.80;99.90
10010;DHT22;5044;48.652;9.250;2023-04-25T20:31:04;6.80;99.90
10010;DHT22;5044;48.652;9.250;2023-04-25T20:33:31;7.00;99.90
10010;DHT22;5044;48.652;9.250;2023-04-25T20:35:58;6.80;99.90
10010;DHT22;5044;48.652;9.250;2023-04-25T20:38:25;6.80;99.90
10010;DHT22;5044;48.652;9.250;2023-04-25T20:40:52;6.80;99.90
10010;DHT22;5044;48.652;9.250;2023-04-25T20:43:22;6.80;99.90
10010;DHT22;5044;48.652;9.250;2023-04-25T20:45:50;7.00;99.90
10010;DHT22;5044;48.652;9.250;2023-04-25T20:48:17;6.80;99.90
10010;DHT22;5044;48.652;9.250;2023-04-25T20:50:44;6.80;99.90
10010;DHT22;5044;48.652;9.250;2023-04-25T20:53:11;6.80;99.90
10010;DHT22;5044;48.652;9.250;2023-04-25T20:55:38;7.00;99.90
10010;DHT22;5044;48.652;9.250;2023-04-25T20:58:06;6.90;99.90
10010;DHT22;5044;48.652;9.250;2023-04-25T21:00:34;6.90;99.90
10010;DHT22;5044;48.652;9.250;2023-04-25T21:03:04;6.90;99.90
10010;DHT22;5044;48.652;9.250;2023-04-25T21:05:31;6.90;99.90
10010;DHT22;5044;48.652;9.250;2023-04-25T21:07:58;6.90;99.90
10010;DHT22;5044;48.652;9.250;2023-04-25T21:10:25;6.90;99.90
10010;DHT22;5044;48.652;9.250;2023-04-25T21:12:52;6.90;99.90
10010;DHT22;5044;48.652;9.250;2023-04-25T21:15:21;6.90;99.90
10010;DHT22;5044;48.652;9.250;2023-04-25T21:17:50;6.90;99.90
10010;DHT22;5044;48.652;9.250;2023-04-25T21:20:19;6.90;99.90
10010;DHT22;5044;48.652;9.250;2023-04-25T21:22:47;6.90;99.90
10010;DHT22;5044;48.652;9.250;2023-04-25T21:25:15;6.90;99.90
10010;DHT22;5044;48.652;9.250;2023-04-25T21:27:45;6.80;99.90
10010;DHT22;5044;48.652;9.250;2023-04-25T21:30:14;6.80;99.90
10010;DHT22;5044;48.652;9.250;2023-04-25T21:32:42;6.80;99.90
10010;DHT22;5044;48.652;9.250;2023-04-25T21:35:11;6.80;99.90
10010;DHT22;5044;48.652;9.250;2023-04-25T21:37:38;6.90;99.90
10010;DHT22;5044;48.652;9.250;2023-04-25T21:40:06;7.10;99.90
10010;DHT22;5044;48.652;9.250;2023-04-25T21:42:33;6.90;99.90
10010;DHT22;5044;48.652;9.250;2023-04-25T21:45:01;6.90;99.90
10010;DHT22;5044;48.652;9.250;2023-04-25T21:47:28;6.80;99.90
10010;DHT22;5044;48.652;9.250;2023-04-25T21:49:54;7.40;99.90
10010;DHT22;5044;48.652;9.250;2023-04-25T21:52:23;6.80;99.90
10010;DHT22;5044;48.652;9.250;2023-04-25T21:54:50;6.90;99.90
10010;DHT22;5044;48.652;9.250;2023-04-25T21:57:16;6.80;99.90
10010;DHT22;5044;48.652;9.250;2023-04-25T21:59:43;6.70;99.90
10010;DHT22;5044;48.652;9.250;2023-04-25T22:02:10;6.80;99.90
10010;DHT22;5044;48.652;9.250;2023-04-25T22:04:37;6.80;99.90
10010;DHT22;5044;48.652;9.250;2023-04-25T22:07:07;7.00;99.90
10010;DHT22;5044;48.652;9.250;2023-04-25T22:09:35;6.80;99.90
10010;DHT22;5044;48.652;9.250;2023-04-25T22:12:02;6.80;99.90
10010;DHT22;5044;48.652;9.250;2023-04-25T22:14:29;6.80;99.90
10010;DHT22;5044;48.652;9.250;2023-04-25T22:16:56;6.80;99.90
10010;DHT22;5044;48.652;9.250;2023-04-25T22:19:23;6.80;99.90
10010;DHT22;5044;48.652;9.250;2023-04-25T22:21:50;6.80;99.90
10010;DHT22;5044;48.652;9.250;2023-04-25T22:24:17;7.00;99.90
10010;DHT22;5044;48.652;9.250;2023-04-25T22:26:47;6.70;99.90
10010;DHT22;5044;48.652;9.250;2023-04-25T22:29:14;6.70;99.90
10010;DHT22;5044;48.652;9.250;2023-04-25T22:31:41;6.70;99.90
10010;DHT22;5044;48.652;9.250;2023-04-25T22:34:08;6.70;99.90
10010;DHT22;5044;48.652;9.250;2023-04-25T22:36:34;6.60;99.90
10010;DHT22;5044;48.652;9.250;2023-04-25T22:39:01;6.60;99.90
10010;DHT22;5044;48.652;9.250;2023-04-25T22:41:28;6.60;99.90
10010;DHT22;5044;48.652;9.250;2023-04-25T22:43:57;6.60;99.90
10010;DHT22;5044;48.652;9.250;2023-04-25T22:46:23;6.60;99.90
10010;DHT22;5044;48.652;9.250;2023-04-25T22:48:50;6.70;99.90
10010;DHT22;5044;48.652;9.250;2023-04-25T22:51:17;6.50;99.90
10010;DHT22;5044;48.652;9.250;2023-04-25T22:53:44;6.40;99.90
10010;DHT22;5044;48.652;9.250;2023-04-25T22:56:11;6.50;99.90
10010;DHT22;5044;48.652;9.250;2023-04-25T22:58:38;6.40;99.90
10010;DHT22;5044;48.652;9.250;2023-04-25T23:01:07;6.40;99.90
10010;DHT22;5044;48.652;9.250;2023-04-25T23:03:35;6.40;99.90
10010;DHT22;5044;48.652;9.250;2023-04-25T23:06:04;6.40;99.90
10010;DHT22;5044;48.652;9.250;2023-04-25T23:08:31;6.40;99.90
10010;DHT22;5044;48.652;9.250;2023-04-25T23:10:58;6.40;99.90